Time;durP1;ratioP1;P1;durP2;ratioP2;P2;SDS_P1;SDS_P2;PMS_P1;PMS_P2;Temp;Humidity;BMP_temperature;BMP_pressure;BME280_temperature;BME280_humidity;BME280_pressure;Samples;Min_cycle;Max_cycle;Signal;HPM_P1;HPM_P2
2021/07/12 00:01:04;;;;;;;;;;;;;;;25.50;51.83;99459.28;5091011;28;19977;-49
2021/07/12 00:03:29;;;;;;;;;;;;;;;25.27;52.36;99461.19;5091564;28;19912;-49
2021/07/12 00:05:54;;;;;;;;;;;;;;;25.09;52.82;99463.75;5091249;28;19912;-50
2021/07/12 00:08:20;;;;;;;;;;;;;;;25.27;52.52;99459.25;5091253;28;20311;-48
2021/07/12 00:10:45;;;;;;;;;;;;;;;25.39;51.91;99466.88;5091038;28;19912;-48
2021/07/12 00:13:10;;;;;;;;;;;;;;;25.21;52.48;99465.91;5091528;28;19912;-48
2021/07/12 00:15:36;;;;;;;;;;;;;;;25.32;52.56;99469.22;5091353;28;19962;-50
2021/07/12 00:18:01;;;;;;;;;;;;;;;25.25;52.64;99460.69;5090770;28;19924;-49
2021/07/12 00:20:27;;;;;;;;;;;;;;;25.26;52.72;99468.53;5101738;28;19995;-48
2021/07/12 00:22:52;;;;;;;;;;;;;;;25.22;52.81;99474.88;5111269;28;20406;-50
2021/07/12 00:25:18;;;;;;;;;;;;;;;25.19;52.68;99468.13;5110833;28;19954;-49
2021/07/12 00:27:43;;;;;;;;;;;;;;;24.98;53.26;99478.69;5111357;28;20177;-50
2021/07/12 00:30:09;;;;;;;;;;;;;;;25.05;53.23;99478.25;5110895;28;20374;-48
2021/07/12 00:32:35;;;;;;;;;;;;;;;25.00;53.30;99470.19;5111364;28;19912;-48
2021/07/12 00:35:00;;;;;;;;;;;;;;;24.97;53.45;99471.63;5111571;28;19923;-48
2021/07/12 00:37:25;;;;;;;;;;;;;;;25.00;53.35;99476.47;5110964;28;19998;-50
2021/07/12 00:39:51;;;;;;;;;;;;;;;25.26;52.85;99482.13;5111121;28;19919;-51
2021/07/12 00:42:16;;;;;;;;;;;;;;;25.24;52.70;99481.66;5111121;28;20048;-51
2021/07/12 00:44:42;;;;;;;;;;;;;;;25.00;53.27;99484.63;5110897;28;19912;-52
2021/07/12 00:47:07;;;;;;;;;;;;;;;24.93;53.83;99487.75;5108902;28;19912;-51
2021/07/12 00:49:33;;;;;;;;;;;;;;;24.99;53.78;99491.16;5090515;28;19916;-50
2021/07/12 00:51:58;;;;;;;;;;;;;;;25.01;53.40;99485.41;5090853;28;19923;-48
2021/07/12 00:54:27;;;;;;;;;;;;;;;24.98;53.57;99473.25;5090944;28;20235;-50
2021/07/12 00:56:57;;;;;;;;;;;;;;;25.00;53.36;99472.91;5090440;28;19916;-52
2021/07/12 00:59:22;;;;;;;;;;;;;;;24.85;54.14;99479.50;5090689;28;20304;-48
2021/07/12 01:01:47;;;;;;;;;;;;;;;24.90;53.87;99480.22;5090815;28;19919;-47
2021/07/12 01:04:13;;;;;;;;;;;;;;;25.06;53.40;99471.72;5090866;28;20534;-49
2021/07/12 01:06:38;;;;;;;;;;;;;;;25.17;52.99;99479.34;5090458;28;19912;-51
2021/07/12 01:09:03;;;;;;;;;;;;;;;25.20;52.88;99467.00;5090075;28;19922;-52
2021/07/12 01:11:35;;;;;;;;;;;;;;;24.87;53.83;99472.66;5090145;28;20022;-49
2021/07/12 01:14:12;;;;;;;;;;;;;;;24.97;53.22;99469.69;5089259;28;19958;-52
2021/07/12 01:16:38;;;;;;;;;;;;;;;24.88;53.33;99474.25;5089852;28;20348;-51
2021/07/12 01:19:22;;;;;;;;;;;;;;;24.72;53.61;99470.25;5090173;28;19919;-49
2021/07/12 01:21:54;;;;;;;;;;;;;;;24.73;53.72;99477.28;5110776;28;19988;-52
2021/07/12 01:24:28;;;;;;;;;;;;;;;24.62;54.27;99470.44;5110048;28;20457;-49
2021/07/12 01:26:59;;;;;;;;;;;;;;;24.45;54.57;99468.34;5109874;28;19918;-49
2021/07/12 01:29:28;;;;;;;;;;;;;;;24.48;54.67;99470.44;5110094;28;19916;-50
2021/07/12 01:32:01;;;;;;;;;;;;;;;24.57;54.63;99466.72;5110453;28;19912;-49
2021/07/12 01:34:30;;;;;;;;;;;;;;;24.45;54.68;99477.28;5110922;28;19912;-49
2021/07/12 01:36:58;;;;;;;;;;;;;;;24.47;54.61;99472.34;5108996;28;19937;-52
2021/07/12 01:39:24;;;;;;;;;;;;;;;24.34;55.31;99467.72;5109625;28;19919;-50
2021/07/12 01:41:58;;;;;;;;;;;;;;;24.39;55.09;99468.41;5109558;28;19915;-49
2021/07/12 01:44:44;;;;;;;;;;;;;;;24.32;54.59;99459.84;5110046;28;19912;-48
2021/07/12 01:47:11;;;;;;;;;;;;;;;24.35;54.68;99458.44;5106316;28;20311;-49
2021/07/12 01:49:54;;;;;;;;;;;;;;;24.30;54.68;99461.28;5089737;28;20015;-52
2021/07/12 01:52:40;;;;;;;;;;;;;;;24.44;54.32;99453.91;5090240;28;19912;-49
2021/07/12 01:55:08;;;;;;;;;;;;;;;24.46;54.23;99453.59;5090029;28;19912;-51
2021/07/12 01:57:35;;;;;;;;;;;;;;;24.32;54.73;99453.63;5089937;28;20417;-49
2021/07/12 02:00:03;;;;;;;;;;;;;;;24.30;54.80;99459.34;5088767;28;19916;-51
2021/07/12 02:02:29;;;;;;;;;;;;;;;24.35;54.56;99458.44;5089889;28;19927;-51
2021/07/12 02:04:55;;;;;;;;;;;;;;;24.31;54.70;99447.38;5089934;28;19916;-48
2021/07/12 02:07:20;;;;;;;;;;;;;;;24.26;54.87;99455.63;5089476;28;19918;-49
2021/07/12 02:09:46;;;;;;;;;;;;;;;24.21;55.21;99453.00;5089545;28;19995;-49
2021/07/12 02:12:12;;;;;;;;;;;;;;;24.20;55.01;99457.63;5089741;28;20353;-49
2021/07/12 02:14:37;;;;;;;;;;;;;;;24.37;54.67;99461.69;5088340;28;20387;-49
2021/07/12 02:17:03;;;;;;;;;;;;;;;24.20;55.21;99465.78;5088006;28;19924;-48
2021/07/12 02:19:29;;;;;;;;;;;;;;;24.32;54.73;99467.22;5090484;28;19912;-48
2021/07/12 02:21:54;;;;;;;;;;;;;;;24.33;54.94;99469.63;5108393;28;20305;-47
2021/07/12 02:24:20;;;;;;;;;;;;;;;24.25;54.94;99473.03;5110650;28;19966;-48
2021/07/12 02:26:45;;;;;;;;;;;;;;;24.30;55.03;99472.16;5112068;28;20007;-50
2021/07/12 02:29:10;;;;;;;;;;;;;;;24.25;54.75;99473.03;5112033;28;19978;-51
2021/07/12 02:31:35;;;;;;;;;;;;;;;24.32;54.69;99472.66;5111920;28;19915;-48
2021/07/12 02:34:01;;;;;;;;;;;;;;;24.26;54.75;99476.59;5113532;28;19912;-48
2021/07/12 02:36:26;;;;;;;;;;;;;;;24.19;54.83;99476.97;5111512;28;19999;-51
2021/07/12 02:38:52;;;;;;;;;;;;;;;24.24;54.64;99476.88;5113015;28;19912;-50
2021/07/12 02:41:17;;;;;;;;;;;;;;;24.49;54.03;99483.72;5113032;28;20002;-49
2021/07/12 02:43:43;;;;;;;;;;;;;;;24.27;54.47;99487.13;5111636;28;19919;-48
2021/07/12 02:46:08;;;;;;;;;;;;;;;24.28;54.58;99479.81;5111511;28;20491;-50
2021/07/12 02:48:33;;;;;;;;;;;;;;;24.14;54.85;99480.59;5111659;28;20125;-48
2021/07/12 02:51:00;;;;;;;;;;;;;;;24.05;54.91;99487.03;5111680;28;20434;-48
2021/07/12 02:53:29;;;;;;;;;;;;;;;24.01;54.98;99486.81;5113144;28;20063;-48
2021/07/12 02:55:55;;;;;;;;;;;;;;;24.04;55.33;99493.56;5112445;28;19971;-52
2021/07/12 02:58:20;;;;;;;;;;;;;;;24.03;55.11;99483.78;5112085;28;20014;-51
2021/07/12 03:00:45;;;;;;;;;;;;;;;24.10;55.13;99487.72;5112786;28;19998;-51
2021/07/12 03:03:11;;;;;;;;;;;;;;;24.00;55.07;99479.75;5112192;28;20379;-50
2021/07/12 03:05:36;;;;;;;;;;;;;;;23.92;55.50;99481.25;5112293;28;19999;-51
2021/07/12 03:08:05;;;;;;;;;;;;;;;23.86;55.54;99484.38;5111023;28;19919;-50
2021/07/12 03:10:31;;;;;;;;;;;;;;;23.79;55.81;99477.38;5112581;28;20397;-49
2021/07/12 03:13:03;;;;;;;;;;;;;;;23.87;55.69;99484.03;5104566;28;19912;-50
2021/07/12 03:15:45;;;;;;;;;;;;;;;23.66;56.29;99480.84;5090859;28;19974;-51
2021/07/12 03:18:16;;;;;;;;;;;;;;;23.74;56.23;99476.63;5092181;28;19924;-49
2021/07/12 03:20:42;;;;;;;;;;;;;;;23.77;56.13;99485.00;5097106;28;19919;-50
2021/07/12 03:23:07;;;;;;;;;;;;;;;23.73;56.37;99483.97;5091917;28;20307;-37
2021/07/12 03:25:33;;;;;;;;;;;;;;;23.80;56.23;99483.66;5090580;28;20351;-37
2021/07/12 03:27:59;;;;;;;;;;;;;;;23.95;55.62;99488.81;5090450;28;20073;-37
2021/07/12 03:30:25;;;;;;;;;;;;;;;23.93;55.95;99482.03;5089481;28;20427;-37
2021/07/12 03:32:50;;;;;;;;;;;;;;;23.91;55.97;99484.25;5091760;28;19919;-38
2021/07/12 03:35:16;;;;;;;;;;;;;;;23.83;56.20;99495.81;5090166;28;19923;-38
2021/07/12 03:37:42;;;;;;;;;;;;;;;23.98;55.62;99495.56;5091329;28;19916;-38
2021/07/12 03:40:08;;;;;;;;;;;;;;;23.88;56.06;99493.03;5090246;28;19912;-38
2021/07/12 03:42:34;;;;;;;;;;;;;;;23.94;55.79;99487.19;5089772;28;19912;-38
2021/07/12 03:45:02;;;;;;;;;;;;;;;24.10;54.71;99487.72;5089730;28;20312;-38
2021/07/12 03:47:28;;;;;;;;;;;;;;;24.25;54.49;99491.25;5091057;28;19916;-36
2021/07/12 03:49:54;;;;;;;;;;;;;;;24.43;54.22;99484.13;5090925;28;19916;-37
2021/07/12 03:52:20;;;;;;;;;;;;;;;24.59;53.45;99488.97;5089503;28;19954;-38
2021/07/12 03:54:45;;;;;;;;;;;;;;;24.82;53.15;99499.16;5089698;28;19935;-38
2021/07/12 03:57:10;;;;;;;;;;;;;;;25.12;52.01;99493.03;5091109;28;19916;-39
2021/07/12 03:59:36;;;;;;;;;;;;;;;25.33;51.26;99495.34;5090991;28;19956;-38
2021/07/12 04:02:01;;;;;;;;;;;;;;;25.42;50.84;99496.22;5090746;28;20010;-37
2021/07/12 04:04:26;;;;;;;;;;;;;;;25.63;50.69;99503.91;5090618;28;19919;-38
2021/07/12 04:06:52;;;;;;;;;;;;;;;25.84;50.17;99491.38;5090525;28;20518;-38
2021/07/12 04:09:17;;;;;;;;;;;;;;;25.99;49.76;99501.13;5090282;28;20342;-39
2021/07/12 04:11:42;;;;;;;;;;;;;;;26.34;49.16;99504.03;5090504;28;19912;-38
2021/07/12 04:14:07;;;;;;;;;;;;;;;26.47;48.47;99503.13;5090059;28;20414;-38
2021/07/12 04:16:33;;;;;;;;;;;;;;;26.47;48.09;99500.38;5089720;28;19924;-38
2021/07/12 04:18:58;;;;;;;;;;;;;;;26.72;47.56;99500.81;5090105;28;19999;-39
2021/07/12 04:21:23;;;;;;;;;;;;;;;26.88;47.34;99498.44;5108451;28;20065;-38
2021/07/12 04:23:49;;;;;;;;;;;;;;;26.94;46.56;99499.91;5110468;28;20015;-38
2021/07/12 04:26:14;;;;;;;;;;;;;;;27.31;45.85;99494.97;5110477;28;19912;-38
2021/07/12 04:28:39;;;;;;;;;;;;;;;27.43;45.04;99505.25;5100381;28;19912;-37
2021/07/12 04:31:05;;;;;;;;;;;;;;;27.61;44.44;99497.88;5090119;28;19919;-37
2021/07/12 04:33:30;;;;;;;;;;;;;;;27.68;44.65;99501.72;5089923;28;19912;-38
2021/07/12 04:35:55;;;;;;;;;;;;;;;27.95;43.85;99496.22;5088922;28;20411;-37
2021/07/12 04:38:21;;;;;;;;;;;;;;;28.07;43.87;99499.88;5089541;28;19913;-38
2021/07/12 04:40:46;;;;;;;;;;;;;;;28.31;43.20;99498.53;5087354;28;19924;-38
2021/07/12 04:43:11;;;;;;;;;;;;;;;28.46;42.77;99505.38;5088106;28;19989;-37
2021/07/12 04:45:36;;;;;;;;;;;;;;;28.66;42.24;99501.94;5088239;28;19948;-38
2021/07/12 04:48:02;;;;;;;;;;;;;;;28.56;42.46;99502.31;5088040;28;19912;-39
2021/07/12 04:50:27;;;;;;;;;;;;;;;28.74;41.57;99499.47;5087865;28;19959;-38
2021/07/12 04:52:52;;;;;;;;;;;;;;;28.85;41.65;99495.22;5076480;28;19920;-38
2021/07/12 04:55:18;;;;;;;;;;;;;;;29.11;41.17;99494.22;5067549;28;19938;-38
2021/07/12 04:57:43;;;;;;;;;;;;;;;29.31;40.27;99500.88;5076581;28;20003;-38
2021/07/12 05:00:09;;;;;;;;;;;;;;;29.51;40.02;99505.56;5089934;28;19966;-38
2021/07/12 05:02:34;;;;;;;;;;;;;;;29.77;39.74;99507.25;5090145;28;19912;-38
2021/07/12 05:04:59;;;;;;;;;;;;;;;29.99;39.22;99509.63;5088168;28;20363;-38
2021/07/12 05:07:25;;;;;;;;;;;;;;;29.88;39.39;99507.66;5084759;28;19920;-38
2021/07/12 05:09:51;;;;;;;;;;;;;;;30.09;39.10;99502.09;5069261;28;19920;-38
2021/07/12 05:12:16;;;;;;;;;;;;;;;30.22;38.72;99503.72;5070051;28;19913;-38
2021/07/12 05:14:43;;;;;;;;;;;;;;;30.62;37.97;99496.81;5088444;28;19912;-36
2021/07/12 05:17:12;;;;;;;;;;;;;;;30.97;36.44;99495.16;5086242;28;20439;-38
2021/07/12 05:19:37;;;;;;;;;;;;;;;31.43;35.79;99502.38;5087870;28;19912;-38
2021/07/12 05:22:02;;;;;;;;;;;;;;;31.07;36.32;99493.09;5088449;28;19972;-38
2021/07/12 05:24:28;;;;;;;;;;;;;;;30.94;36.50;99495.88;5084435;28;19912;-37
2021/07/12 05:26:53;;;;;;;;;;;;;;;31.05;36.54;99509.91;5089926;28;20289;-39
2021/07/12 05:29:18;;;;;;;;;;;;;;;31.52;36.05;99505.78;5077558;28;19912;-39
2021/07/12 05:31:44;;;;;;;;;;;;;;;31.79;34.88;99512.44;5069196;28;19939;-38
2021/07/12 05:34:09;;;;;;;;;;;;;;;32.81;33.63;99509.13;5067826;28;19923;-37
2021/07/12 05:36:35;;;;;;;;;;;;;;;32.45;34.41;99508.25;5067636;28;20275;-37
2021/07/12 05:39:00;;;;;;;;;;;;;;;32.23;34.56;99511.63;5067910;28;20005;-38
2021/07/12 05:41:25;;;;;;;;;;;;;;;32.22;34.35;99510.84;5067524;28;20559;-39
2021/07/12 05:43:50;;;;;;;;;;;;;;;32.58;33.69;99511.75;5067788;28;19912;-38
2021/07/12 05:46:16;;;;;;;;;;;;;;;33.05;32.50;99513.59;5067829;28;20033;-37
2021/07/12 05:48:41;;;;;;;;;;;;;;;33.61;32.42;99511.59;5067615;28;20134;-38
2021/07/12 05:51:06;;;;;;;;;;;;;;;33.70;31.80;99506.69;5067829;28;19912;-37
2021/07/12 05:53:31;;;;;;;;;;;;;;;33.46;32.62;99500.28;5067961;28;19912;-37
2021/07/12 05:55:57;;;;;;;;;;;;;;;33.11;32.94;99503.91;5067894;28;19923;-38
2021/07/12 05:58:22;;;;;;;;;;;;;;;33.35;32.72;99496.50;5068259;28;19970;-38
2021/07/12 06:00:47;;;;;;;;;;;;;;;33.81;32.09;99498.59;5071089;28;20117;-38
2021/07/12 06:03:13;;;;;;;;;;;;;;;34.32;31.36;99503.84;5071195;28;19913;-38
2021/07/12 06:05:38;;;;;;;;;;;;;;;34.37;30.98;99502.75;5071315;28;19913;-37
2021/07/12 06:08:03;;;;;;;;;;;;;;;33.82;31.71;99505.72;5071273;28;20284;-38
2021/07/12 06:10:29;;;;;;;;;;;;;;;33.79;32.08;99510.00;5071143;28;19920;-38
2021/07/12 06:12:54;;;;;;;;;;;;;;;33.79;32.52;99507.25;5077864;28;19916;-38
2021/07/12 06:15:19;;;;;;;;;;;;;;;34.13;31.79;99509.41;5091644;28;20069;-38
2021/07/12 06:17:45;;;;;;;;;;;;;;;34.34;31.15;99504.28;5091383;28;19932;-38
2021/07/12 06:20:14;;;;;;;;;;;;;;;35.51;29.48;99505.53;5099755;28;19919;-40
2021/07/12 06:22:39;;;;;;;;;;;;;;;34.58;31.41;99511.38;5111596;28;19931;-37
2021/07/12 06:25:04;;;;;;;;;;;;;;;34.49;30.98;99510.84;5111587;28;19912;-38
2021/07/12 06:27:30;;;;;;;;;;;;;;;34.36;30.83;99513.00;5112024;28;20069;-38
2021/07/12 06:29:55;;;;;;;;;;;;;;;34.59;30.67;99507.44;5111709;28;19916;-39
2021/07/12 06:32:20;;;;;;;;;;;;;;;34.97;30.09;99510.38;5092086;28;19916;-38
2021/07/12 06:34:45;;;;;;;;;;;;;;;35.14;29.88;99507.03;5090507;28;19989;-38
2021/07/12 06:37:11;;;;;;;;;;;;;;;35.26;29.06;99505.25;5090076;28;19985;-39
2021/07/12 06:39:36;;;;;;;;;;;;;;;35.03;29.97;99506.09;5092404;28;20411;-36
2021/07/12 06:42:02;;;;;;;;;;;;;;;35.29;29.24;99507.28;5093093;28;19924;-37
2021/07/12 06:44:27;;;;;;;;;;;;;;;35.38;29.22;99505.81;5095641;28;19922;-38
2021/07/12 06:46:52;;;;;;;;;;;;;;;35.52;28.92;99504.38;5090394;28;19919;-38
2021/07/12 06:49:17;;;;;;;;;;;;;;;36.23;28.05;99509.88;5090569;28;19931;-39
2021/07/12 06:51:43;;;;;;;;;;;;;;;36.73;27.29;99503.94;5091663;28;19922;-38
2021/07/12 06:54:08;;;;;;;;;;;;;;;35.90;29.05;99496.91;5092212;28;19932;-38
2021/07/12 06:56:33;;;;;;;;;;;;;;;35.97;28.27;99500.53;5091422;28;20329;-38
2021/07/12 06:58:59;;;;;;;;;;;;;;;36.36;28.01;99504.84;5091766;28;19919;-38
2021/07/12 07:01:24;;;;;;;;;;;;;;;36.50;27.70;99510.50;5091775;28;20399;-51
2021/07/12 07:03:49;;;;;;;;;;;;;;;37.23;27.26;99506.22;5090959;28;19919;-52
2021/07/12 07:06:14;;;;;;;;;;;;;;;36.73;27.08;99507.50;5090839;28;19927;-50
2021/07/12 07:08:40;;;;;;;;;;;;;;;36.11;27.63;99497.09;5090281;28;19912;-38
2021/07/12 07:11:05;;;;;;;;;;;;;;;35.82;28.23;99498.81;5090947;28;20367;-39
2021/07/12 07:13:30;;;;;;;;;;;;;;;36.15;27.91;99500.69;5091328;28;19919;-38
2021/07/12 07:15:56;;;;;;;;;;;;;;;36.57;27.12;99504.19;5091079;28;20053;-39
2021/07/12 07:18:21;;;;;;;;;;;;;;;37.60;26.15;99505.91;5090850;28;20056;-38
2021/07/12 07:20:46;;;;;;;;;;;;;;;37.02;26.80;99512.44;5090019;28;19912;-38
2021/07/12 07:23:12;;;;;;;;;;;;;;;36.50;27.27;99502.19;5090063;28;19999;-37
2021/07/12 07:25:37;;;;;;;;;;;;;;;36.14;27.28;99501.88;5090176;28;19919;-37
2021/07/12 07:28:02;;;;;;;;;;;;;;;36.62;27.30;99508.59;5090128;28;19912;-38
2021/07/12 07:30:28;;;;;;;;;;;;;;;37.07;26.99;99512.03;5090339;28;20004;-38
2021/07/12 07:32:53;;;;;;;;;;;;;;;37.68;25.36;99502.03;5090925;28;20359;-39
2021/07/12 07:35:18;;;;;;;;;;;;;;;36.94;25.78;99514.38;5088103;28;20281;-37
2021/07/12 07:37:46;;;;;;;;;;;;;;;36.69;26.57;99503.94;5090546;28;19920;-38
2021/07/12 07:40:13;;;;;;;;;;;;;;;36.65;27.08;99505.84;5090889;28;19923;-38
2021/07/12 07:42:38;;;;;;;;;;;;;;;37.01;26.51;99519.94;5090273;28;19935;-39
2021/07/12 07:45:04;;;;;;;;;;;;;;;37.55;25.99;99509.09;5090058;28;20363;-37
2021/07/12 07:47:29;;;;;;;;;;;;;;;37.71;25.50;99514.31;5090268;28;20347;-39
2021/07/12 07:49:54;;;;;;;;;;;;;;;36.84;25.73;99504.78;5090323;28;19923;-38
2021/07/12 07:52:20;;;;;;;;;;;;;;;36.35;27.22;99508.78;5090250;28;19912;-38
2021/07/12 07:54:45;;;;;;;;;;;;;;;36.60;26.82;99500.66;5090635;28;20284;-39
2021/07/12 07:57:10;;;;;;;;;;;;;;;36.75;26.60;99512.66;5090591;28;19916;-39
2021/07/12 07:59:36;;;;;;;;;;;;;;;36.98;26.55;99510.41;5090683;28;20010;-40
2021/07/12 08:02:01;;;;;;;;;;;;;;;37.93;24.89;99501.28;5090022;28;19916;-39
2021/07/12 08:04:26;;;;;;;;;;;;;;;36.46;27.36;99506.91;5090017;28;20010;-39
2021/07/12 08:06:54;;;;;;;;;;;;;;;36.05;27.79;99497.84;5090599;28;20006;-38
2021/07/12 08:09:19;;;;;;;;;;;;;;;36.10;27.59;99491.91;5090178;28;19923;-39
2021/07/12 08:11:46;;;;;;;;;;;;;;;36.13;27.19;99488.41;5090390;28;19927;-39
2021/07/12 08:14:12;;;;;;;;;;;;;;;36.59;27.08;99491.56;5091247;28;20002;-38
2021/07/12 08:16:38;;;;;;;;;;;;;;;37.19;26.43;99486.78;5089662;28;20100;-40
2021/07/12 08:19:03;;;;;;;;;;;;;;;36.88;26.87;99490.94;5090163;28;20483;-39
2021/07/12 08:21:28;;;;;;;;;;;;;;;36.13;27.59;99486.41;5109500;28;19912;-40
2021/07/12 08:23:53;;;;;;;;;;;;;;;36.70;26.85;99486.09;5102664;28;20008;-39
2021/07/12 08:26:19;;;;;;;;;;;;;;;36.99;26.63;99489.03;5089824;28;19985;-38
2021/07/12 08:28:44;;;;;;;;;;;;;;;37.30;26.67;99493.16;5103408;28;19922;-38
2021/07/12 08:31:11;;;;;;;;;;;;;;;37.82;25.76;99473.50;5092586;28;19918;-39
2021/07/12 08:33:36;;;;;;;;;;;;;;;39.08;24.09;99481.75;5105374;28;19912;-39
2021/07/12 08:36:02;;;;;;;;;;;;;;;38.65;24.62;99479.88;5097526;28;19919;-39
2021/07/12 08:38:27;;;;;;;;;;;;;;;38.18;25.31;99475.53;5097599;28;19912;-39
2021/07/12 08:40:53;;;;;;;;;;;;;;;37.54;25.84;99480.53;5104281;28;19916;-38
2021/07/12 08:43:19;;;;;;;;;;;;;;;37.51;25.43;99475.00;5092505;28;19920;-39
2021/07/12 08:45:45;;;;;;;;;;;;;;;37.54;25.89;99480.53;5104014;28;19912;-39
2021/07/12 08:48:10;;;;;;;;;;;;;;;37.79;25.76;99479.03;5097798;28;19915;-40
2021/07/12 08:50:35;;;;;;;;;;;;;;;38.47;23.82;99479.84;5094957;28;19916;-40
2021/07/12 08:53:00;;;;;;;;;;;;;;;37.86;24.65;99488.16;5105585;28;19923;-39
2021/07/12 08:55:26;;;;;;;;;;;;;;;37.78;24.91;99477.47;5092898;28;19922;-39
2021/07/12 08:58:24;;;;;;;;;;;;;;;37.74;25.10;99474.69;5103306;28;19912;-39
2021/07/12 09:00:53;;;;;;;;;;;;;;;37.63;25.21;99474.66;5080814;28;19916;-39
2021/07/12 09:03:19;;;;;;;;;;;;;;;38.02;25.03;99471.09;5092101;28;19993;-39
2021/07/12 09:05:51;;;;;;;;;;;;;;;38.28;24.62;99472.72;5103550;28;19912;-39
2021/07/12 09:08:31;;;;;;;;;;;;;;;38.52;23.75;99471.13;5099049;28;20377;-39
2021/07/12 09:11:29;;;;;;;;;;;;;;;37.92;24.27;99464.38;5091559;28;20145;-38
2021/07/12 09:13:54;;;;;;;;;;;;;;;37.35;24.23;99467.00;5059033;28;19957;-39
2021/07/12 09:16:25;;;;;;;;;;;;;;;36.91;24.74;99457.69;5097908;28;20040;-39
2021/07/12 09:19:01;;;;;;;;;;;;;;;37.17;24.85;99467.75;5103592;28;20292;-39
2021/07/12 09:21:30;;;;;;;;;;;;;;;36.98;25.09;99457.75;5092038;28;20426;-38
2021/07/12 09:24:10;;;;;;;;;;;;;;;37.60;24.22;99469.84;5101756;28;19931;-39
2021/07/12 09:26:35;;;;;;;;;;;;;;;37.46;23.43;99456.75;5088160;28;20057;-38
2021/07/12 09:29:00;;;;;;;;;;;;;;;36.67;24.25;99464.72;5103707;28;19969;-39
2021/07/12 09:31:26;;;;;;;;;;;;;;;36.70;24.74;99461.16;5092206;28;19912;-39
2021/07/12 09:33:51;;;;;;;;;;;;;;;36.80;24.25;99456.84;5102948;28;20008;-39
2021/07/12 09:36:17;;;;;;;;;;;;;;;37.20;23.71;99449.53;5102585;28;19923;-39
2021/07/12 09:38:42;;;;;;;;;;;;;;;37.13;23.75;99461.41;5099059;28;19959;-38
2021/07/12 09:41:26;;;;;;;;;;;;;;;37.41;23.32;99454.34;5096953;28;19923;-39
2021/07/12 09:43:58;;;;;;;;;;;;;;;36.75;23.59;99462.78;5095253;28;19981;-39
2021/07/12 09:46:27;;;;;;;;;;;;;;;36.32;23.97;99459.69;5091413;28;19913;-38
2021/07/12 09:49:08;;;;;;;;;;;;;;;36.30;24.45;99457.31;5094058;28;19956;-38
2021/07/12 09:51:34;;;;;;;;;;;;;;;36.15;24.34;99452.81;5093634;28;19919;-38
2021/07/12 09:54:03;;;;;;;;;;;;;;;36.59;24.70;99458.31;5094036;28;19912;-39
2021/07/12 09:56:28;;;;;;;;;;;;;;;36.29;25.09;99449.38;5092169;28;19948;-39
2021/07/12 09:58:56;;;;;;;;;;;;;;;36.57;25.40;99455.09;5093323;28;19963;-39
2021/07/12 10:01:25;;;;;;;;;;;;;;;36.60;24.87;99448.81;5092135;28;20022;-38
2021/07/12 10:03:51;;;;;;;;;;;;;;;36.54;23.77;99447.59;5099161;28;19912;-37
2021/07/12 10:06:16;;;;;;;;;;;;;;;35.81;24.71;99444.63;5101882;28;19923;-39
2021/07/12 10:08:41;;;;;;;;;;;;;;;36.08;24.71;99442.50;5106387;28;19915;-40
2021/07/12 10:11:07;;;;;;;;;;;;;;;35.94;24.69;99436.81;5096013;28;19912;-38
2021/07/12 10:13:33;;;;;;;;;;;;;;;36.58;23.76;99440.09;5099209;28;20003;-38
2021/07/12 10:15:58;;;;;;;;;;;;;;;36.77;23.34;99439.03;5097932;28;19995;-40
2021/07/12 10:18:26;;;;;;;;;;;;;;;36.72;23.51;99431.06;5100594;28;19922;-39
2021/07/12 10:20:51;;;;;;;;;;;;;;;37.15;23.33;99436.84;5092924;28;19948;-40
2021/07/12 10:23:17;;;;;;;;;;;;;;;36.85;23.75;99437.09;5108608;28;20398;-39
2021/07/12 10:25:44;;;;;;;;;;;;;;;36.49;23.98;99439.63;5096276;28;19918;-39
2021/07/12 10:28:10;;;;;;;;;;;;;;;36.35;24.03;99439.56;5103289;28;20422;-39
2021/07/12 10:30:43;;;;;;;;;;;;;;;36.16;24.63;99437.81;5105138;28;19915;-40
2021/07/12 10:33:09;;;;;;;;;;;;;;;35.82;25.47;99433.16;5094429;28;19912;-39
2021/07/12 10:35:44;;;;;;;;;;;;;;;35.91;24.56;99434.81;5108137;28;19912;-38
2021/07/12 10:38:13;;;;;;;;;;;;;;;35.46;24.77;99436.75;5100843;28;19922;-39
2021/07/12 10:40:45;;;;;;;;;;;;;;;35.38;25.29;99433.09;5098087;28;20303;-39
2021/07/12 10:43:10;;;;;;;;;;;;;;;35.60;24.78;99423.84;5108259;28;19963;-40
2021/07/12 10:45:37;;;;;;;;;;;;;;;36.13;23.79;99425.50;5095402;28;19958;-40
2021/07/12 10:48:04;;;;;;;;;;;;;;;35.80;23.93;99418.91;5104054;28;19955;-39
2021/07/12 10:50:36;;;;;;;;;;;;;;;35.95;23.97;99427.34;5093647;28;19916;-39
2021/07/12 10:53:02;;;;;;;;;;;;;;;36.42;22.72;99419.41;5093631;28;19927;-39
2021/07/12 10:55:31;;;;;;;;;;;;;;;36.47;22.13;99424.59;5096548;28;19912;-38
2021/07/12 10:58:15;;;;;;;;;;;;;;;36.40;22.96;99420.59;5104878;28;20411;-37
2021/07/12 11:00:40;;;;;;;;;;;;;;;36.70;22.62;99422.34;5106228;28;20014;-38
2021/07/12 11:03:05;;;;;;;;;;;;;;;36.52;23.31;99429.75;5094672;28;20229;-38
2021/07/12 11:05:37;;;;;;;;;;;;;;;35.71;23.10;99418.44;5092976;28;19912;-39
2021/07/12 11:08:02;;;;;;;;;;;;;;;35.70;22.66;99424.34;5101565;28;19916;-39
2021/07/12 11:10:28;;;;;;;;;;;;;;;35.98;22.20;99419.06;5102393;28;19912;-39
2021/07/12 11:12:54;;;;;;;;;;;;;;;36.48;21.28;99420.63;5096096;28;20423;-39
2021/07/12 11:15:22;;;;;;;;;;;;;;;36.80;20.47;99415.28;5107917;28;19912;-40
2021/07/12 11:17:48;;;;;;;;;;;;;;;37.06;19.77;99419.75;5096332;28;19931;-39
2021/07/12 11:20:13;;;;;;;;;;;;;;;37.41;19.16;99409.97;5100967;28;19916;-38
2021/07/12 11:22:51;;;;;;;;;;;;;;;37.66;19.58;99414.78;5103845;28;19911;-38
2021/07/12 11:25:18;;;;;;;;;;;;;;;37.74;20.53;99408.84;5093672;28;20295;-39
2021/07/12 11:27:44;;;;;;;;;;;;;;;37.79;20.97;99404.09;5105001;28;19930;-38
2021/07/12 11:30:28;;;;;;;;;;;;;;;37.71;21.36;99392.97;5090136;28;20019;-38
2021/07/12 11:32:53;;;;;;;;;;;;;;;36.97;21.62;99400.69;5105962;28;19919;-39
2021/07/12 11:35:18;;;;;;;;;;;;;;;36.63;22.29;99397.34;5094349;28;19948;-39
2021/07/12 11:37:43;;;;;;;;;;;;;;;36.71;21.88;99387.94;5105221;28;20413;-39
2021/07/12 11:40:09;;;;;;;;;;;;;;;36.31;22.71;99383.31;5099985;28;19941;-39
2021/07/12 11:42:35;;;;;;;;;;;;;;;36.97;22.28;99384.06;5097925;28;19912;-38
2021/07/12 11:45:07;;;;;;;;;;;;;;;37.43;22.08;99373.50;5106853;28;19918;-38
2021/07/12 11:47:39;;;;;;;;;;;;;;;37.49;21.48;99374.69;5078502;28;19912;-39
2021/07/12 11:50:11;;;;;;;;;;;;;;;37.77;21.51;99368.41;5111018;28;20013;-38
2021/07/12 11:52:37;;;;;;;;;;;;;;;37.90;20.52;99374.34;5096351;28;19912;-39
2021/07/12 11:55:04;;;;;;;;;;;;;;;37.34;21.05;99366.38;5106993;28;20021;-39
2021/07/12 11:57:29;;;;;;;;;;;;;;;37.53;21.88;99359.66;5105053;28;19977;-41
2021/07/12 11:59:55;;;;;;;;;;;;;;;37.24;21.23;99360.78;5097894;28;19916;-39
2021/07/12 12:02:20;;;;;;;;;;;;;;;37.46;20.72;99354.09;5099560;28;20381;-39
2021/07/12 12:04:48;;;;;;;;;;;;;;;37.19;20.93;99361.19;5097582;28;19938;-38
2021/07/12 12:07:34;;;;;;;;;;;;;;;37.17;21.39;99356.81;5106629;28;19931;-38
2021/07/12 12:09:59;;;;;;;;;;;;;;;37.36;21.30;99352.91;5082260;28;19912;-39
2021/07/12 12:12:25;;;;;;;;;;;;;;;37.61;21.62;99354.94;5099150;28;19976;-40
2021/07/12 12:14:55;;;;;;;;;;;;;;;37.85;21.31;99355.31;5073272;28;19912;-39
2021/07/12 12:17:20;;;;;;;;;;;;;;;37.52;20.49;99355.28;5105451;28;19935;-39
2021/07/12 12:19:59;;;;;;;;;;;;;;;37.46;20.85;99356.06;5090724;28;19916;-39
2021/07/12 12:22:24;;;;;;;;;;;;;;;37.22;20.48;99355.63;5100988;28;19995;-39
2021/07/12 12:24:51;;;;;;;;;;;;;;;37.33;20.58;99352.88;5095024;28;20069;-39
2021/07/12 12:27:16;;;;;;;;;;;;;;;37.07;21.68;99345.66;5107067;28;20383;-40
2021/07/12 12:29:41;;;;;;;;;;;;;;;37.31;20.38;99361.59;5104698;28;19923;-39
2021/07/12 12:32:06;;;;;;;;;;;;;;;36.98;20.50;99357.16;5097734;28;20029;-39
2021/07/12 12:34:32;;;;;;;;;;;;;;;36.43;21.64;99357.28;5097870;28;20371;-39
2021/07/12 12:36:57;;;;;;;;;;;;;;;36.55;22.17;99351.41;5105990;28;19912;-39
2021/07/12 12:39:23;;;;;;;;;;;;;;;36.91;21.64;99344.03;5107582;28;19927;-39
2021/07/12 12:41:55;;;;;;;;;;;;;;;37.04;20.96;99343.69;5089456;28;20275;-39
2021/07/12 12:44:23;;;;;;;;;;;;;;;36.93;20.72;99338.91;5100146;28;19911;-39
2021/07/12 12:46:53;;;;;;;;;;;;;;;37.24;21.05;99335.81;5095022;28;19912;-37